sensor_id;sensor_type;location;lat;lon;timestamp;temperature;humidity
42199;DHT22;27868;45.184;5.786;2023-07-29T00:01:26;25.00;71.10
42199;DHT22;27868;45.184;5.786;2023-07-29T00:04:12;25.00;71.20
42199;DHT22;27868;45.184;5.786;2023-07-29T00:06:56;25.00;71.80
42199;DHT22;27868;45.184;5.786;2023-07-29T00:09:42;25.00;71.30
42199;DHT22;27868;45.184;5.786;2023-07-29T00:12:26;24.90;71.40
42199;DHT22;27868;45.184;5.786;2023-07-29T00:15:11;24.90;71.70
42199;DHT22;27868;45.184;5.786;2023-07-29T00:17:55;24.80;72.20
42199;DHT22;27868;45.184;5.786;2023-07-29T00:20:40;24.70;72.70
42199;DHT22;27868;45.184;5.786;2023-07-29T00:23:24;24.70;72.20
42199;DHT22;27868;45.184;5.786;2023-07-29T00:26:09;24.70;72.20
42199;DHT22;27868;45.184;5.786;2023-07-29T00:28:53;24.70;71.80
42199;DHT22;27868;45.184;5.786;2023-07-29T00:31:38;24.80;71.60
42199;DHT22;27868;45.184;5.786;2023-07-29T00:34:22;24.80;71.40
42199;DHT22;27868;45.184;5.786;2023-07-29T00:37:07;24.80;71.70
42199;DHT22;27868;45.184;5.786;2023-07-29T00:39:51;24.80;71.40
42199;DHT22;27868;45.184;5.786;2023-07-29T00:42:36;24.80;71.60
42199;DHT22;27868;45.184;5.786;2023-07-29T00:45:20;24.80;72.00
42199;DHT22;27868;45.184;5.786;2023-07-29T00:48:05;24.80;71.80
42199;DHT22;27868;45.184;5.786;2023-07-29T00:50:50;24.80;72.40
42199;DHT22;27868;45.184;5.786;2023-07-29T00:53:35;24.80;72.30
42199;DHT22;27868;45.184;5.786;2023-07-29T00:56:20;24.80;72.40
42199;DHT22;27868;45.184;5.786;2023-07-29T00:59:04;24.70;72.60
42199;DHT22;27868;45.184;5.786;2023-07-29T01:01:49;24.70;72.40
42199;DHT22;27868;45.184;5.786;2023-07-29T01:04:34;24.70;72.70
42199;DHT22;27868;45.184;5.786;2023-07-29T01:07:33;24.70;72.80
42199;DHT22;27868;45.184;5.786;2023-07-29T01:16:12;24.60;73.20
42199;DHT22;27868;45.184;5.786;2023-07-29T01:19:03;24.70;73.50
42199;DHT22;27868;45.184;5.786;2023-07-29T01:21:49;24.70;73.30
42199;DHT22;27868;45.184;5.786;2023-07-29T01:24:34;24.60;73.20
42199;DHT22;27868;45.184;5.786;2023-07-29T01:27:19;24.60;73.50
42199;DHT22;27868;45.184;5.786;2023-07-29T01:30:04;24.50;73.60
42199;DHT22;27868;45.184;5.786;2023-07-29T01:32:55;24.50;73.70
42199;DHT22;27868;45.184;5.786;2023-07-29T01:35:48;24.50;73.80
42199;DHT22;27868;45.184;5.786;2023-07-29T01:38:35;24.50;74.00
42199;DHT22;27868;45.184;5.786;2023-07-29T01:41:20;24.50;74.10
42199;DHT22;27868;45.184;5.786;2023-07-29T01:44:06;24.50;74.40
42199;DHT22;27868;45.184;5.786;2023-07-29T01:46:51;24.50;74.30
42199;DHT22;27868;45.184;5.786;2023-07-29T01:49:35;24.50;74.30
42199;DHT22;27868;45.184;5.786;2023-07-29T01:52:20;24.50;74.10
42199;DHT22;27868;45.184;5.786;2023-07-29T01:55:04;24.40;74.10
42199;DHT22;27868;45.184;5.786;2023-07-29T01:57:49;24.40;74.10
42199;DHT22;27868;45.184;5.786;2023-07-29T02:00:34;24.40;74.00
42199;DHT22;27868;45.184;5.786;2023-07-29T02:03:18;24.30;74.10
42199;DHT22;27868;45.184;5.786;2023-07-29T02:06:03;24.30;74.20
42199;DHT22;27868;45.184;5.786;2023-07-29T02:08:48;24.30;74.90
42199;DHT22;27868;45.184;5.786;2023-07-29T02:11:33;24.20;74.60
42199;DHT22;27868;45.184;5.786;2023-07-29T02:14:18;24.20;74.20
42199;DHT22;27868;45.184;5.786;2023-07-29T02:17:02;24.20;74.20
42199;DHT22;27868;45.184;5.786;2023-07-29T02:19:47;24.20;74.50
42199;DHT22;27868;45.184;5.786;2023-07-29T02:22:31;24.20;74.50
42199;DHT22;27868;45.184;5.786;2023-07-29T02:25:16;24.10;74.50
42199;DHT22;27868;45.184;5.786;2023-07-29T02:28:00;24.10;74.70
42199;DHT22;27868;45.184;5.786;2023-07-29T02:30:45;24.10;74.80
42199;DHT22;27868;45.184;5.786;2023-07-29T02:33:30;24.10;74.80
42199;DHT22;27868;45.184;5.786;2023-07-29T02:36:15;24.00;74.70
42199;DHT22;27868;45.184;5.786;2023-07-29T02:39:00;24.00;74.70
42199;DHT22;27868;45.184;5.786;2023-07-29T02:41:44;24.00;75.00
42199;DHT22;27868;45.184;5.786;2023-07-29T02:44:29;24.00;75.40
42199;DHT22;27868;45.184;5.786;2023-07-29T02:47:13;23.90;75.50
42199;DHT22;27868;45.184;5.786;2023-07-29T02:49:58;23.90;75.60
42199;DHT22;27868;45.184;5.786;2023-07-29T02:52:42;23.80;75.50
42199;DHT22;27868;45.184;5.786;2023-07-29T02:55:27;23.80;75.60
42199;DHT22;27868;45.184;5.786;2023-07-29T02:58:12;23.80;75.50
42199;DHT22;27868;45.184;5.786;2023-07-29T03:01:06;23.70;75.40
42199;DHT22;27868;45.184;5.786;2023-07-29T03:03:51;23.70;75.60
42199;DHT22;27868;45.184;5.786;2023-07-29T03:06:36;23.70;75.80
42199;DHT22;27868;45.184;5.786;2023-07-29T03:09:20;23.70;76.00
42199;DHT22;27868;45.184;5.786;2023-07-29T03:12:05;23.70;76.10
42199;DHT22;27868;45.184;5.786;2023-07-29T03:14:50;23.60;76.20
42199;DHT22;27868;45.184;5.786;2023-07-29T03:17:35;23.60;76.30
42199;DHT22;27868;45.184;5.786;2023-07-29T03:20:20;23.60;76.40
42199;DHT22;27868;45.184;5.786;2023-07-29T03:23:04;23.60;76.60
42199;DHT22;27868;45.184;5.786;2023-07-29T03:25:49;23.50;76.80
42199;DHT22;27868;45.184;5.786;2023-07-29T03:28:37;23.50;76.70
42199;DHT22;27868;45.184;5.786;2023-07-29T03:31:22;23.50;76.70
42199;DHT22;27868;45.184;5.786;2023-07-29T03:34:07;23.50;76.80
42199;DHT22;27868;45.184;5.786;2023-07-29T03:36:51;23.50;76.80
42199;DHT22;27868;45.184;5.786;2023-07-29T03:39:36;23.40;77.10
42199;DHT22;27868;45.184;5.786;2023-07-29T03:42:21;23.50;77.50
42199;DHT22;27868;45.184;5.786;2023-07-29T03:45:06;23.50;78.00
42199;DHT22;27868;45.184;5.786;2023-07-29T03:47:50;23.50;78.30
42199;DHT22;27868;45.184;5.786;2023-07-29T03:50:35;23.50;78.30
42199;DHT22;27868;45.184;5.786;2023-07-29T03:53:20;23.50;78.50
42199;DHT22;27868;45.184;5.786;2023-07-29T03:56:05;23.40;78.60
42199;DHT22;27868;45.184;5.786;2023-07-29T03:58:50;23.40;78.60
42199;DHT22;27868;45.184;5.786;2023-07-29T04:01:35;23.40;78.40
42199;DHT22;27868;45.184;5.786;2023-07-29T04:04:19;23.40;78.10
42199;DHT22;27868;45.184;5.786;2023-07-29T04:07:06;23.40;77.70
42199;DHT22;27868;45.184;5.786;2023-07-29T04:09:50;23.40;77.70
42199;DHT22;27868;45.184;5.786;2023-07-29T04:12:35;23.30;77.40
42199;DHT22;27868;45.184;5.786;2023-07-29T04:15:20;23.30;77.50
42199;DHT22;27868;45.184;5.786;2023-07-29T04:18:04;23.30;77.70
42199;DHT22;27868;45.184;5.786;2023-07-29T04:20:49;23.30;77.90
42199;DHT22;27868;45.184;5.786;2023-07-29T04:23:33;23.20;77.70
42199;DHT22;27868;45.184;5.786;2023-07-29T04:26:18;23.20;78.00
42199;DHT22;27868;45.184;5.786;2023-07-29T04:29:03;23.10;78.30
42199;DHT22;27868;45.184;5.786;2023-07-29T04:31:47;23.10;78.30
42199;DHT22;27868;45.184;5.786;2023-07-29T04:34:31;23.10;78.10
42199;DHT22;27868;45.184;5.786;2023-07-29T04:37:16;23.10;77.90
42199;DHT22;27868;45.184;5.786;2023-07-29T04:40:01;23.10;77.90
42199;DHT22;27868;45.184;5.786;2023-07-29T04:42:46;23.10;77.80
42199;DHT22;27868;45.184;5.786;2023-07-29T04:45:30;23.20;78.20
42199;DHT22;27868;45.184;5.786;2023-07-29T04:48:15;23.20;77.80
42199;DHT22;27868;45.184;5.786;2023-07-29T04:51:00;23.20;77.70
42199;DHT22;27868;45.184;5.786;2023-07-29T04:53:44;23.20;77.80
42199;DHT22;27868;45.184;5.786;2023-07-29T04:56:29;23.20;77.80
42199;DHT22;27868;45.184;5.786;2023-07-29T04:59:13;23.10;77.80
42199;DHT22;27868;45.184;5.786;2023-07-29T05:01:58;23.20;77.90
42199;DHT22;27868;45.184;5.786;2023-07-29T05:04:42;23.10;78.10
42199;DHT22;27868;45.184;5.786;2023-07-29T05:07:27;23.10;78.20
42199;DHT22;27868;45.184;5.786;2023-07-29T05:10:11;23.10;78.20
42199;DHT22;27868;45.184;5.786;2023-07-29T05:12:56;23.10;78.20
42199;DHT22;27868;45.184;5.786;2023-07-29T05:15:40;23.10;78.40
42199;DHT22;27868;45.184;5.786;2023-07-29T05:18:25;22.80;78.90
42199;DHT22;27868;45.184;5.786;2023-07-29T05:21:09;22.80;79.10
42199;DHT22;27868;45.184;5.786;2023-07-29T05:23:56;22.80;79.30
42199;DHT22;27868;45.184;5.786;2023-07-29T05:26:40;22.80;79.10
42199;DHT22;27868;45.184;5.786;2023-07-29T05:29:24;22.90;79.60
42199;DHT22;27868;45.184;5.786;2023-07-29T05:32:09;22.90;79.90
42199;DHT22;27868;45.184;5.786;2023-07-29T05:34:53;22.90;81.20
42199;DHT22;27868;45.184;5.786;2023-07-29T05:37:38;22.90;80.50
42199;DHT22;27868;45.184;5.786;2023-07-29T05:40:24;23.00;80.90
42199;DHT22;27868;45.184;5.786;2023-07-29T05:43:09;23.00;80.70
42199;DHT22;27868;45.184;5.786;2023-07-29T05:45:53;23.00;81.00
42199;DHT22;27868;45.184;5.786;2023-07-29T05:48:38;23.00;80.90
42199;DHT22;27868;45.184;5.786;2023-07-29T05:51:22;23.00;81.30
42199;DHT22;27868;45.184;5.786;2023-07-29T05:54:07;23.00;81.70
42199;DHT22;27868;45.184;5.786;2023-07-29T05:56:51;23.00;81.50
42199;DHT22;27868;45.184;5.786;2023-07-29T05:59:36;23.00;82.10
42199;DHT22;27868;45.184;5.786;2023-07-29T06:02:20;23.10;81.50
42199;DHT22;27868;45.184;5.786;2023-07-29T06:05:05;23.20;81.30
42199;DHT22;27868;45.184;5.786;2023-07-29T06:07:50;23.20;81.50
42199;DHT22;27868;45.184;5.786;2023-07-29T06:10:35;23.20;81.50
42199;DHT22;27868;45.184;5.786;2023-07-29T06:13:19;23.30;81.30
42199;DHT22;27868;45.184;5.786;2023-07-29T06:16:04;23.40;81.10
42199;DHT22;27868;45.184;5.786;2023-07-29T06:18:49;23.50;81.10
42199;DHT22;27868;45.184;5.786;2023-07-29T06:21:33;23.60;81.20
42199;DHT22;27868;45.184;5.786;2023-07-29T06:24:18;23.70;80.90
42199;DHT22;27868;45.184;5.786;2023-07-29T06:27:02;23.70;80.40
42199;DHT22;27868;45.184;5.786;2023-07-29T06:29:47;23.80;80.00
42199;DHT22;27868;45.184;5.786;2023-07-29T06:32:32;23.90;79.90
42199;DHT22;27868;45.184;5.786;2023-07-29T06:35:17;24.00;79.60
42199;DHT22;27868;45.184;5.786;2023-07-29T06:38:01;24.00;78.90
42199;DHT22;27868;45.184;5.786;2023-07-29T06:40:46;24.10;78.80
42199;DHT22;27868;45.184;5.786;2023-07-29T06:43:30;24.10;78.10
42199;DHT22;27868;45.184;5.786;2023-07-29T06:46:15;24.10;78.20
42199;DHT22;27868;45.184;5.786;2023-07-29T06:48:59;24.20;77.40
42199;DHT22;27868;45.184;5.786;2023-07-29T06:51:44;24.20;78.20
42199;DHT22;27868;45.184;5.786;2023-07-29T06:54:29;24.30;78.30
42199;DHT22;27868;45.184;5.786;2023-07-29T06:57:13;24.40;78.40
42199;DHT22;27868;45.184;5.786;2023-07-29T06:59:58;24.50;78.00
42199;DHT22;27868;45.184;5.786;2023-07-29T07:02:42;24.50;78.00
42199;DHT22;27868;45.184;5.786;2023-07-29T07:05:27;24.50;78.10
42199;DHT22;27868;45.184;5.786;2023-07-29T07:08:12;24.60;77.80
42199;DHT22;27868;45.184;5.786;2023-07-29T07:10:56;24.50;78.00
42199;DHT22;27868;45.184;5.786;2023-07-29T07:13:41;24.60;78.40
42199;DHT22;27868;45.184;5.786;2023-07-29T07:16:25;24.70;77.50
42199;DHT22;27868;45.184;5.786;2023-07-29T07:19:10;24.80;77.30
42199;DHT22;27868;45.184;5.786;2023-07-29T07:21:55;24.70;77.40
42199;DHT22;27868;45.184;5.786;2023-07-29T07:24:40;24.90;77.10
42199;DHT22;27868;45.184;5.786;2023-07-29T07:27:24;25.00;76.80
42199;DHT22;27868;45.184;5.786;2023-07-29T07:30:09;25.00;76.00
42199;DHT22;27868;45.184;5.786;2023-07-29T07:32:54;25.00;75.10
42199;DHT22;27868;45.184;5.786;2023-07-29T07:35:38;25.10;75.10
42199;DHT22;27868;45.184;5.786;2023-07-29T07:38:23;25.20;74.40
42199;DHT22;27868;45.184;5.786;2023-07-29T07:41:07;25.20;74.20
42199;DHT22;27868;45.184;5.786;2023-07-29T07:43:52;25.30;73.90
42199;DHT22;27868;45.184;5.786;2023-07-29T07:46:36;25.30;74.10
42199;DHT22;27868;45.184;5.786;2023-07-29T07:49:22;25.40;74.50
42199;DHT22;27868;45.184;5.786;2023-07-29T07:52:07;25.40;74.10
42199;DHT22;27868;45.184;5.786;2023-07-29T07:54:52;25.50;74.20
42199;DHT22;27868;45.184;5.786;2023-07-29T07:57:37;25.60;72.90
42199;DHT22;27868;45.184;5.786;2023-07-29T08:00:22;25.60;72.80
42199;DHT22;27868;45.184;5.786;2023-07-29T08:03:07;25.60;72.60
42199;DHT22;27868;45.184;5.786;2023-07-29T08:05:51;25.60;72.70
42199;DHT22;27868;45.184;5.786;2023-07-29T08:08:36;25.60;72.40
42199;DHT22;27868;45.184;5.786;2023-07-29T08:11:20;25.70;72.20
42199;DHT22;27868;45.184;5.786;2023-07-29T08:14:05;25.80;72.70
42199;DHT22;27868;45.184;5.786;2023-07-29T08:16:49;25.80;72.80
42199;DHT22;27868;45.184;5.786;2023-07-29T08:19:34;25.80;71.00
42199;DHT22;27868;45.184;5.786;2023-07-29T08:22:19;25.90;71.00
42199;DHT22;27868;45.184;5.786;2023-07-29T08:25:05;25.90;70.90
42199;DHT22;27868;45.184;5.786;2023-07-29T08:27:50;26.00;70.50
42199;DHT22;27868;45.184;5.786;2023-07-29T08:30:35;26.00;70.20
42199;DHT22;27868;45.184;5.786;2023-07-29T08:33:19;26.10;69.90
42199;DHT22;27868;45.184;5.786;2023-07-29T08:36:04;26.20;69.80
42199;DHT22;27868;45.184;5.786;2023-07-29T08:38:49;26.10;70.10
42199;DHT22;27868;45.184;5.786;2023-07-29T08:42:07;26.20;69.50
42199;DHT22;27868;45.184;5.786;2023-07-29T08:44:54;26.10;70.10
42199;DHT22;27868;45.184;5.786;2023-07-29T08:47:39;26.10;70.20
42199;DHT22;27868;45.184;5.786;2023-07-29T08:50:24;26.10;71.00
42199;DHT22;27868;45.184;5.786;2023-07-29T08:53:10;26.10;71.30
42199;DHT22;27868;45.184;5.786;2023-07-29T08:55:55;26.10;70.80
42199;DHT22;27868;45.184;5.786;2023-07-29T08:58:40;26.10;69.10
42199;DHT22;27868;45.184;5.786;2023-07-29T09:01:25;26.20;69.60
42199;DHT22;27868;45.184;5.786;2023-07-29T09:04:10;26.20;69.50
42199;DHT22;27868;45.184;5.786;2023-07-29T09:06:55;26.20;69.90
42199;DHT22;27868;45.184;5.786;2023-07-29T09:09:40;26.30;69.60
42199;DHT22;27868;45.184;5.786;2023-07-29T09:12:24;26.30;69.50
42199;DHT22;27868;45.184;5.786;2023-07-29T09:15:09;26.30;69.60
42199;DHT22;27868;45.184;5.786;2023-07-29T09:17:58;26.30;69.90
42199;DHT22;27868;45.184;5.786;2023-07-29T09:20:43;26.30;69.90
42199;DHT22;27868;45.184;5.786;2023-07-29T09:23:27;26.40;68.70
42199;DHT22;27868;45.184;5.786;2023-07-29T09:26:12;26.40;69.10
42199;DHT22;27868;45.184;5.786;2023-07-29T09:28:58;26.50;69.00
42199;DHT22;27868;45.184;5.786;2023-07-29T09:31:42;26.60;68.60
42199;DHT22;27868;45.184;5.786;2023-07-29T09:34:27;26.70;68.50
42199;DHT22;27868;45.184;5.786;2023-07-29T09:37:21;26.70;68.30
42199;DHT22;27868;45.184;5.786;2023-07-29T09:40:07;26.80;66.60
42199;DHT22;27868;45.184;5.786;2023-07-29T09:42:58;26.80;66.80
42199;DHT22;27868;45.184;5.786;2023-07-29T09:45:42;26.90;66.70
42199;DHT22;27868;45.184;5.786;2023-07-29T09:48:27;27.00;66.70
42199;DHT22;27868;45.184;5.786;2023-07-29T09:51:14;27.00;67.00
42199;DHT22;27868;45.184;5.786;2023-07-29T09:54:02;27.10;67.30
42199;DHT22;27868;45.184;5.786;2023-07-29T09:56:47;27.20;67.50
42199;DHT22;27868;45.184;5.786;2023-07-29T09:59:35;27.30;67.10
42199;DHT22;27868;45.184;5.786;2023-07-29T10:02:20;27.30;66.00
42199;DHT22;27868;45.184;5.786;2023-07-29T10:05:07;27.40;65.70
42199;DHT22;27868;45.184;5.786;2023-07-29T10:07:52;27.50;65.90
42199;DHT22;27868;45.184;5.786;2023-07-29T10:10:37;27.70;64.30
42199;DHT22;27868;45.184;5.786;2023-07-29T10:13:24;27.70;65.10
42199;DHT22;27868;45.184;5.786;2023-07-29T10:16:10;27.80;63.70
42199;DHT22;27868;45.184;5.786;2023-07-29T10:18:56;27.90;64.30
42199;DHT22;27868;45.184;5.786;2023-07-29T10:21:44;28.00;65.00
42199;DHT22;27868;45.184;5.786;2023-07-29T10:24:32;28.10;64.00
42199;DHT22;27868;45.184;5.786;2023-07-29T10:27:18;28.20;63.90
42199;DHT22;27868;45.184;5.786;2023-07-29T10:30:03;28.30;62.80
42199;DHT22;27868;45.184;5.786;2023-07-29T10:32:49;28.50;62.80
42199;DHT22;27868;45.184;5.786;2023-07-29T10:35:34;28.60;63.90
42199;DHT22;27868;45.184;5.786;2023-07-29T10:38:22;28.70;63.00
42199;DHT22;27868;45.184;5.786;2023-07-29T10:41:07;28.80;63.00
42199;DHT22;27868;45.184;5.786;2023-07-29T10:43:52;29.00;61.80
42199;DHT22;27868;45.184;5.786;2023-07-29T10:46:36;29.00;60.80
42199;DHT22;27868;45.184;5.786;2023-07-29T10:49:23;29.20;61.80
42199;DHT22;27868;45.184;5.786;2023-07-29T10:52:08;29.40;60.60
42199;DHT22;27868;45.184;5.786;2023-07-29T10:54:57;29.40;60.10
42199;DHT22;27868;45.184;5.786;2023-07-29T10:57:45;29.60;60.00
42199;DHT22;27868;45.184;5.786;2023-07-29T11:00:31;29.80;59.70
42199;DHT22;27868;45.184;5.786;2023-07-29T11:03:16;29.90;58.40
42199;DHT22;27868;45.184;5.786;2023-07-29T11:06:04;30.00;58.70
42199;DHT22;27868;45.184;5.786;2023-07-29T11:08:49;30.10;59.20
42199;DHT22;27868;45.184;5.786;2023-07-29T11:11:34;30.20;58.70
42199;DHT22;27868;45.184;5.786;2023-07-29T11:14:23;30.30;59.00
42199;DHT22;27868;45.184;5.786;2023-07-29T11:17:08;30.30;58.60
42199;DHT22;27868;45.184;5.786;2023-07-29T11:19:55;30.40;58.80
42199;DHT22;27868;45.184;5.786;2023-07-29T11:22:41;30.40;59.20
42199;DHT22;27868;45.184;5.786;2023-07-29T11:25:28;30.50;59.00
42199;DHT22;27868;45.184;5.786;2023-07-29T11:28:15;30.40;58.20
42199;DHT22;27868;45.184;5.786;2023-07-29T11:30:59;30.40;58.70
42199;DHT22;27868;45.184;5.786;2023-07-29T11:33:44;30.40;58.70
42199;DHT22;27868;45.184;5.786;2023-07-29T11:36:28;30.40;59.20
42199;DHT22;27868;45.184;5.786;2023-07-29T11:39:13;30.40;59.20
42199;DHT22;27868;45.184;5.786;2023-07-29T11:41:58;30.40;58.80
42199;DHT22;27868;45.184;5.786;2023-07-29T11:44:42;30.40;58.70
42199;DHT22;27868;45.184;5.786;2023-07-29T11:47:27;30.40;59.20
42199;DHT22;27868;45.184;5.786;2023-07-29T11:50:13;30.30;58.50
42199;DHT22;27868;45.184;5.786;2023-07-29T11:53:01;30.30;59.00
42199;DHT22;27868;45.184;5.786;2023-07-29T11:55:51;30.30;58.30
42199;DHT22;27868;45.184;5.786;2023-07-29T11:58:37;30.20;58.50
42199;DHT22;27868;45.184;5.786;2023-07-29T12:01:22;30.20;59.00
42199;DHT22;27868;45.184;5.786;2023-07-29T12:04:07;30.20;59.30
42199;DHT22;27868;45.184;5.786;2023-07-29T12:06:52;30.10;59.10
42199;DHT22;27868;45.184;5.786;2023-07-29T12:09:37;30.10;60.40
42199;DHT22;27868;45.184;5.786;2023-07-29T12:12:22;30.20;59.30
42199;DHT22;27868;45.184;5.786;2023-07-29T12:15:08;30.10;59.90
42199;DHT22;27868;45.184;5.786;2023-07-29T12:17:57;30.10;59.60
42199;DHT22;27868;45.184;5.786;2023-07-29T12:20:42;30.10;59.60
42199;DHT22;27868;45.184;5.786;2023-07-29T12:23:26;30.00;59.40
42199;DHT22;27868;45.184;5.786;2023-07-29T12:26:11;29.90;59.20
42199;DHT22;27868;45.184;5.786;2023-07-29T12:28:55;30.00;60.30
42199;DHT22;27868;45.184;5.786;2023-07-29T12:31:43;29.90;60.20
42199;DHT22;27868;45.184;5.786;2023-07-29T12:34:29;29.90;59.50
42199;DHT22;27868;45.184;5.786;2023-07-29T12:37:14;29.90;59.50
42199;DHT22;27868;45.184;5.786;2023-07-29T12:39:58;29.80;58.90
42199;DHT22;27868;45.184;5.786;2023-07-29T12:42:43;29.90;59.50
42199;DHT22;27868;45.184;5.786;2023-07-29T12:45:27;29.90;59.20
42199;DHT22;27868;45.184;5.786;2023-07-29T12:48:13;30.00;59.60
42199;DHT22;27868;45.184;5.786;2023-07-29T12:50:57;30.10;58.10
42199;DHT22;27868;45.184;5.786;2023-07-29T12:53:42;30.00;57.40
42199;DHT22;27868;45.184;5.786;2023-07-29T12:56:27;30.00;58.40
42199;DHT22;27868;45.184;5.786;2023-07-29T12:59:11;29.90;58.30
42199;DHT22;27868;45.184;5.786;2023-07-29T13:01:56;29.90;58.20
42199;DHT22;27868;45.184;5.786;2023-07-29T13:04:40;29.90;58.20
42199;DHT22;27868;45.184;5.786;2023-07-29T13:07:25;29.90;58.70
42199;DHT22;27868;45.184;5.786;2023-07-29T13:10:10;29.80;58.80
42199;DHT22;27868;45.184;5.786;2023-07-29T13:12:55;29.80;58.60
42199;DHT22;27868;45.184;5.786;2023-07-29T13:15:40;29.70;58.80
42199;DHT22;27868;45.184;5.786;2023-07-29T13:18:25;29.60;59.10
42199;DHT22;27868;45.184;5.786;2023-07-29T13:21:10;29.40;58.40
42199;DHT22;27868;45.184;5.786;2023-07-29T13:23:55;29.40;60.30
42199;DHT22;27868;45.184;5.786;2023-07-29T13:26:40;29.50;59.70
42199;DHT22;27868;45.184;5.786;2023-07-29T13:29:24;29.60;59.90
42199;DHT22;27868;45.184;5.786;2023-07-29T13:32:09;29.50;58.90
42199;DHT22;27868;45.184;5.786;2023-07-29T13:34:54;29.60;59.30
42199;DHT22;27868;45.184;5.786;2023-07-29T13:37:38;29.50;58.40
42199;DHT22;27868;45.184;5.786;2023-07-29T13:40:23;29.40;58.50
42199;DHT22;27868;45.184;5.786;2023-07-29T13:43:07;29.30;58.40
42199;DHT22;27868;45.184;5.786;2023-07-29T13:45:52;29.20;58.60
42199;DHT22;27868;45.184;5.786;2023-07-29T13:48:37;29.10;58.70
42199;DHT22;27868;45.184;5.786;2023-07-29T13:51:21;29.20;59.40
42199;DHT22;27868;45.184;5.786;2023-07-29T13:54:06;29.30;59.60
42199;DHT22;27868;45.184;5.786;2023-07-29T13:56:50;29.30;59.80
42199;DHT22;27868;45.184;5.786;2023-07-29T13:59:35;29.40;59.50
42199;DHT22;27868;45.184;5.786;2023-07-29T14:02:19;29.40;59.40
42199;DHT22;27868;45.184;5.786;2023-07-29T14:05:04;29.50;59.30
42199;DHT22;27868;45.184;5.786;2023-07-29T14:07:49;29.40;59.00
42199;DHT22;27868;45.184;5.786;2023-07-29T14:10:34;29.40;58.80
42199;DHT22;27868;45.184;5.786;2023-07-29T14:13:18;29.50;59.30
42199;DHT22;27868;45.184;5.786;2023-07-29T14:16:03;29.50;59.30
42199;DHT22;27868;45.184;5.786;2023-07-29T14:18:48;29.50;59.50
42199;DHT22;27868;45.184;5.786;2023-07-29T14:21:32;29.50;59.80
42199;DHT22;27868;45.184;5.786;2023-07-29T14:24:17;29.40;58.90
42199;DHT22;27868;45.184;5.786;2023-07-29T14:27:02;29.40;58.80
42199;DHT22;27868;45.184;5.786;2023-07-29T14:29:47;29.40;58.80
42199;DHT22;27868;45.184;5.786;2023-07-29T14:32:32;29.30;58.90
42199;DHT22;27868;45.184;5.786;2023-07-29T14:35:17;29.30;59.50
42199;DHT22;27868;45.184;5.786;2023-07-29T14:38:01;29.30;59.30
42199;DHT22;27868;45.184;5.786;2023-07-29T14:40:48;29.30;59.20
42199;DHT22;27868;45.184;5.786;2023-07-29T14:43:35;29.20;59.00
42199;DHT22;27868;45.184;5.786;2023-07-29T14:46:19;29.20;59.10
42199;DHT22;27868;45.184;5.786;2023-07-29T14:49:04;29.30;59.70
42199;DHT22;27868;45.184;5.786;2023-07-29T14:51:48;29.20;59.60
42199;DHT22;27868;45.184;5.786;2023-07-29T14:54:33;29.10;59.50
42199;DHT22;27868;45.184;5.786;2023-07-29T14:57:17;29.10;59.70
42199;DHT22;27868;45.184;5.786;2023-07-29T15:00:03;29.10;59.80
42199;DHT22;27868;45.184;5.786;2023-07-29T15:02:47;29.00;60.30
42199;DHT22;27868;45.184;5.786;2023-07-29T15:05:33;29.10;60.20
42199;DHT22;27868;45.184;5.786;2023-07-29T15:08:17;29.10;59.90
42199;DHT22;27868;45.184;5.786;2023-07-29T15:11:02;29.10;60.10
42199;DHT22;27868;45.184;5.786;2023-07-29T15:13:46;29.10;60.20
42199;DHT22;27868;45.184;5.786;2023-07-29T15:16:31;29.10;60.00
42199;DHT22;27868;45.184;5.786;2023-07-29T15:19:15;29.10;61.20
42199;DHT22;27868;45.184;5.786;2023-07-29T15:22:00;29.00;60.30
42199;DHT22;27868;45.184;5.786;2023-07-29T15:24:44;29.00;60.60
42199;DHT22;27868;45.184;5.786;2023-07-29T15:27:29;28.90;60.90
42199;DHT22;27868;45.184;5.786;2023-07-29T15:30:14;29.10;60.60
42199;DHT22;27868;45.184;5.786;2023-07-29T15:32:58;28.90;61.10
42199;DHT22;27868;45.184;5.786;2023-07-29T15:35:43;28.90;60.10
42199;DHT22;27868;45.184;5.786;2023-07-29T15:38:27;28.80;61.00
42199;DHT22;27868;45.184;5.786;2023-07-29T15:41:12;28.90;61.40
42199;DHT22;27868;45.184;5.786;2023-07-29T15:43:56;28.80;60.90
42199;DHT22;27868;45.184;5.786;2023-07-29T15:46:41;28.80;61.40
42199;DHT22;27868;45.184;5.786;2023-07-29T15:49:26;28.70;60.90
42199;DHT22;27868;45.184;5.786;2023-07-29T15:52:10;28.60;60.90
42199;DHT22;27868;45.184;5.786;2023-07-29T15:54:58;28.60;61.10
42199;DHT22;27868;45.184;5.786;2023-07-29T15:57:42;28.50;61.30
42199;DHT22;27868;45.184;5.786;2023-07-29T16:00:27;28.50;61.30
42199;DHT22;27868;45.184;5.786;2023-07-29T16:03:13;28.50;61.00
42199;DHT22;27868;45.184;5.786;2023-07-29T16:05:57;28.50;61.20
42199;DHT22;27868;45.184;5.786;2023-07-29T16:08:42;28.40;61.10
42199;DHT22;27868;45.184;5.786;2023-07-29T16:11:27;28.40;61.50
42199;DHT22;27868;45.184;5.786;2023-07-29T16:14:12;28.30;60.80
42199;DHT22;27868;45.184;5.786;2023-07-29T16:16:58;28.20;61.00
42199;DHT22;27868;45.184;5.786;2023-07-29T16:19:57;28.20;61.50
42199;DHT22;27868;45.184;5.786;2023-07-29T16:22:41;28.10;61.30
42199;DHT22;27868;45.184;5.786;2023-07-29T16:25:26;28.10;61.00
42199;DHT22;27868;45.184;5.786;2023-07-29T16:28:10;28.00;61.00
42199;DHT22;27868;45.184;5.786;2023-07-29T16:30:55;28.00;60.80
42199;DHT22;27868;45.184;5.786;2023-07-29T16:33:39;28.00;61.20
42199;DHT22;27868;45.184;5.786;2023-07-29T16:36:24;27.90;61.20
42199;DHT22;27868;45.184;5.786;2023-07-29T16:39:09;27.90;61.20
42199;DHT22;27868;45.184;5.786;2023-07-29T16:41:53;27.90;61.10
42199;DHT22;27868;45.184;5.786;2023-07-29T16:44:38;27.90;61.50
42199;DHT22;27868;45.184;5.786;2023-07-29T16:47:24;27.90;62.50
42199;DHT22;27868;45.184;5.786;2023-07-29T16:50:10;27.80;62.70
42199;DHT22;27868;45.184;5.786;2023-07-29T16:52:55;27.80;63.20
42199;DHT22;27868;45.184;5.786;2023-07-29T16:55:41;27.80;64.30
42199;DHT22;27868;45.184;5.786;2023-07-29T16:58:26;27.70;66.60
42199;DHT22;27868;45.184;5.786;2023-07-29T17:01:11;27.70;68.20
42199;DHT22;27868;45.184;5.786;2023-07-29T17:03:55;27.70;68.50
42199;DHT22;27868;45.184;5.786;2023-07-29T17:06:40;27.60;70.80
42199;DHT22;27868;45.184;5.786;2023-07-29T17:09:24;27.30;72.00
42199;DHT22;27868;45.184;5.786;2023-07-29T17:12:08;27.20;72.40
42199;DHT22;27868;45.184;5.786;2023-07-29T17:14:53;27.10;72.50
42199;DHT22;27868;45.184;5.786;2023-07-29T17:17:37;27.00;73.20
42199;DHT22;27868;45.184;5.786;2023-07-29T17:20:23;27.00;73.50
42199;DHT22;27868;45.184;5.786;2023-07-29T17:23:07;27.00;74.10
42199;DHT22;27868;45.184;5.786;2023-07-29T17:25:51;27.00;74.60
42199;DHT22;27868;45.184;5.786;2023-07-29T17:28:36;26.80;75.60